sensor_id;sensor_type;location;lat;lon;timestamp;temperature;humidity
21849;DHT22;11089;49.852;19.700;2023-02-25T00:00:19;7.00;1.00
21849;DHT22;11089;49.852;19.700;2023-02-25T00:03:21;7.00;1.00
21849;DHT22;11089;49.852;19.700;2023-02-25T00:06:22;7.00;1.00
21849;DHT22;11089;49.852;19.700;2023-02-25T00:09:23;7.00;1.00
21849;DHT22;11089;49.852;19.700;2023-02-25T00:12:24;7.00;1.00
21849;DHT22;11089;49.852;19.700;2023-02-25T00:15:27;7.00;1.00
21849;DHT22;11089;49.852;19.700;2023-02-25T00:18:28;7.00;99.90
21849;DHT22;11089;49.852;19.700;2023-02-25T00:21:30;7.10;1.00
21849;DHT22;11089;49.852;19.700;2023-02-25T00:24:31;7.10;1.00
21849;DHT22;11089;49.852;19.700;2023-02-25T00:27:32;7.10;1.00
21849;DHT22;11089;49.852;19.700;2023-02-25T00:30:34;7.10;1.00
21849;DHT22;11089;49.852;19.700;2023-02-25T00:33:35;7.10;1.00
21849;DHT22;11089;49.852;19.700;2023-02-25T00:36:37;7.10;1.00
21849;DHT22;11089;49.852;19.700;2023-02-25T00:39:39;7.20;99.90
21849;DHT22;11089;49.852;19.700;2023-02-25T00:42:43;7.20;99.90
21849;DHT22;11089;49.852;19.700;2023-02-25T00:45:44;7.00;99.90
21849;DHT22;11089;49.852;19.700;2023-02-25T00:48:45;7.00;99.90
21849;DHT22;11089;49.852;19.700;2023-02-25T00:51:46;7.00;5.80
21849;DHT22;11089;49.852;19.700;2023-02-25T00:54:47;7.00;99.90
21849;DHT22;11089;49.852;19.700;2023-02-25T00:57:48;6.90;99.90
21849;DHT22;11089;49.852;19.700;2023-02-25T01:00:49;6.90;99.90
21849;DHT22;11089;49.852;19.700;2023-02-25T01:03:51;6.90;1.00
21849;DHT22;11089;49.852;19.700;2023-02-25T01:06:52;6.90;1.00
21849;DHT22;11089;49.852;19.700;2023-02-25T01:09:57;6.90;1.00
21849;DHT22;11089;49.852;19.700;2023-02-25T01:12:58;6.90;1.00
21849;DHT22;11089;49.852;19.700;2023-02-25T01:15:58;6.80;1.00
21849;DHT22;11089;49.852;19.700;2023-02-25T01:19:11;6.80;1.00
21849;DHT22;11089;49.852;19.700;2023-02-25T01:22:12;6.80;1.00
21849;DHT22;11089;49.852;19.700;2023-02-25T01:25:13;6.70;22.40
21849;DHT22;11089;49.852;19.700;2023-02-25T01:28:17;6.70;30.00
21849;DHT22;11089;49.852;19.700;2023-02-25T01:31:19;6.70;99.90
21849;DHT22;11089;49.852;19.700;2023-02-25T01:34:25;6.60;99.90
21849;DHT22;11089;49.852;19.700;2023-02-25T01:37:26;6.50;99.90
21849;DHT22;11089;49.852;19.700;2023-02-25T01:40:27;6.40;99.90
21849;DHT22;11089;49.852;19.700;2023-02-25T01:43:28;6.40;99.90
21849;DHT22;11089;49.852;19.700;2023-02-25T01:46:29;6.30;99.90
21849;DHT22;11089;49.852;19.700;2023-02-25T01:52:31;6.30;99.90
21849;DHT22;11089;49.852;19.700;2023-02-25T01:55:32;6.20;99.90
21849;DHT22;11089;49.852;19.700;2023-02-25T01:58:34;6.10;99.90
21849;DHT22;11089;49.852;19.700;2023-02-25T02:01:37;6.10;99.90
21849;DHT22;11089;49.852;19.700;2023-02-25T02:04:40;6.00;99.90
21849;DHT22;11089;49.852;19.700;2023-02-25T02:07:42;6.00;99.90
21849;DHT22;11089;49.852;19.700;2023-02-25T02:10:43;6.00;99.90
21849;DHT22;11089;49.852;19.700;2023-02-25T02:13:51;5.90;99.90
21849;DHT22;11089;49.852;19.700;2023-02-25T02:17:12;5.90;99.90
21849;DHT22;11089;49.852;19.700;2023-02-25T02:20:28;5.90;99.90
21849;DHT22;11089;49.852;19.700;2023-02-25T02:30:42;5.90;99.90
21849;DHT22;11089;49.852;19.700;2023-02-25T02:33:57;5.90;99.90
21849;DHT22;11089;49.852;19.700;2023-02-25T02:46:51;5.80;99.90
21849;DHT22;11089;49.852;19.700;2023-02-25T02:50:01;5.70;99.90
21849;DHT22;11089;49.852;19.700;2023-02-25T02:53:18;5.70;99.90
21849;DHT22;11089;49.852;19.700;2023-02-25T02:56:21;5.70;99.90
21849;DHT22;11089;49.852;19.700;2023-02-25T03:03:06;5.60;99.90
21849;DHT22;11089;49.852;19.700;2023-02-25T03:06:10;5.60;99.90
21849;DHT22;11089;49.852;19.700;2023-02-25T03:09:26;5.70;99.90
21849;DHT22;11089;49.852;19.700;2023-02-25T03:12:30;5.70;99.90
21849;DHT22;11089;49.852;19.700;2023-02-25T03:15:32;5.70;99.90
21849;DHT22;11089;49.852;19.700;2023-02-25T03:18:36;5.50;99.90
21849;DHT22;11089;49.852;19.700;2023-02-25T03:21:43;5.60;99.90
21849;DHT22;11089;49.852;19.700;2023-02-25T03:28:09;5.60;99.90
21849;DHT22;11089;49.852;19.700;2023-02-25T03:31:28;5.60;99.90
21849;DHT22;11089;49.852;19.700;2023-02-25T03:34:36;5.60;99.90
21849;DHT22;11089;49.852;19.700;2023-02-25T03:37:40;5.60;99.90
21849;DHT22;11089;49.852;19.700;2023-02-25T03:40:43;5.70;99.90
21849;DHT22;11089;49.852;19.700;2023-02-25T03:43:49;5.70;99.90
21849;DHT22;11089;49.852;19.700;2023-02-25T03:46:52;5.70;99.90
21849;DHT22;11089;49.852;19.700;2023-02-25T03:52:58;5.70;99.90
21849;DHT22;11089;49.852;19.700;2023-02-25T03:56:03;5.70;99.90
21849;DHT22;11089;49.852;19.700;2023-02-25T03:59:05;5.70;99.90
21849;DHT22;11089;49.852;19.700;2023-02-25T04:02:05;5.70;99.90
21849;DHT22;11089;49.852;19.700;2023-02-25T04:05:07;5.60;99.90
21849;DHT22;11089;49.852;19.700;2023-02-25T04:08:11;5.50;99.90
21849;DHT22;11089;49.852;19.700;2023-02-25T04:11:15;5.60;99.90
21849;DHT22;11089;49.852;19.700;2023-02-25T04:14:16;5.50;99.90
21849;DHT22;11089;49.852;19.700;2023-02-25T04:17:17;5.50;99.90
21849;DHT22;11089;49.852;19.700;2023-02-25T04:20:19;5.50;99.90
21849;DHT22;11089;49.852;19.700;2023-02-25T04:23:19;5.50;99.90
21849;DHT22;11089;49.852;19.700;2023-02-25T04:26:20;5.00;99.90
21849;DHT22;11089;49.852;19.700;2023-02-25T04:29:21;4.70;99.90
21849;DHT22;11089;49.852;19.700;2023-02-25T04:32:22;4.50;99.90
21849;DHT22;11089;49.852;19.700;2023-02-25T04:35:23;4.50;99.90
21849;DHT22;11089;49.852;19.700;2023-02-25T04:38:24;4.30;99.90
21849;DHT22;11089;49.852;19.700;2023-02-25T04:41:30;4.20;99.80
21849;DHT22;11089;49.852;19.700;2023-02-25T04:44:31;4.20;99.90
21849;DHT22;11089;49.852;19.700;2023-02-25T04:47:32;4.20;99.90
21849;DHT22;11089;49.852;19.700;2023-02-25T04:50:33;4.10;76.00
21849;DHT22;11089;49.852;19.700;2023-02-25T04:53:34;3.90;99.90
21849;DHT22;11089;49.852;19.700;2023-02-25T04:56:37;4.00;99.90
21849;DHT22;11089;49.852;19.700;2023-02-25T04:59:39;3.90;99.90
21849;DHT22;11089;49.852;19.700;2023-02-25T05:02:40;3.90;99.90
21849;DHT22;11089;49.852;19.700;2023-02-25T05:05:41;3.90;99.90
21849;DHT22;11089;49.852;19.700;2023-02-25T05:08:42;3.80;99.90
21849;DHT22;11089;49.852;19.700;2023-02-25T05:11:43;3.80;99.90
21849;DHT22;11089;49.852;19.700;2023-02-25T05:14:44;3.80;99.90
21849;DHT22;11089;49.852;19.700;2023-02-25T05:17:44;3.70;99.90
21849;DHT22;11089;49.852;19.700;2023-02-25T05:20:46;3.80;99.90
21849;DHT22;11089;49.852;19.700;2023-02-25T05:23:49;3.70;99.90
21849;DHT22;11089;49.852;19.700;2023-02-25T05:26:50;3.70;99.90
21849;DHT22;11089;49.852;19.700;2023-02-25T05:29:51;3.60;99.90
21849;DHT22;11089;49.852;19.700;2023-02-25T05:32:52;3.60;99.90
21849;DHT22;11089;49.852;19.700;2023-02-25T05:35:53;3.70;99.90
21849;DHT22;11089;49.852;19.700;2023-02-25T05:38:55;3.70;99.90
21849;DHT22;11089;49.852;19.700;2023-02-25T05:41:58;3.50;99.90
21849;DHT22;11089;49.852;19.700;2023-02-25T05:44:59;3.50;99.90
21849;DHT22;11089;49.852;19.700;2023-02-25T05:48:00;3.50;99.90
21849;DHT22;11089;49.852;19.700;2023-02-25T05:51:03;3.40;99.90
21849;DHT22;11089;49.852;19.700;2023-02-25T05:54:04;3.30;99.90
21849;DHT22;11089;49.852;19.700;2023-02-25T05:57:05;3.30;99.90
21849;DHT22;11089;49.852;19.700;2023-02-25T06:00:07;3.20;99.90
21849;DHT22;11089;49.852;19.700;2023-02-25T06:03:14;3.20;99.90
21849;DHT22;11089;49.852;19.700;2023-02-25T06:06:17;3.20;99.90
21849;DHT22;11089;49.852;19.700;2023-02-25T06:09:22;3.10;99.90
21849;DHT22;11089;49.852;19.700;2023-02-25T06:12:23;3.20;99.90
21849;DHT22;11089;49.852;19.700;2023-02-25T06:15:24;3.10;99.90
21849;DHT22;11089;49.852;19.700;2023-02-25T06:18:25;3.00;99.90
21849;DHT22;11089;49.852;19.700;2023-02-25T06:21:26;2.90;99.90
21849;DHT22;11089;49.852;19.700;2023-02-25T06:24:27;2.90;99.90
21849;DHT22;11089;49.852;19.700;2023-02-25T06:27:27;2.90;99.90
21849;DHT22;11089;49.852;19.700;2023-02-25T06:30:29;2.80;99.90
21849;DHT22;11089;49.852;19.700;2023-02-25T06:33:30;2.80;99.90
21849;DHT22;11089;49.852;19.700;2023-02-25T06:36:32;2.80;99.90
21849;DHT22;11089;49.852;19.700;2023-02-25T06:39:33;2.70;99.90
21849;DHT22;11089;49.852;19.700;2023-02-25T06:42:34;2.80;99.90
21849;DHT22;11089;49.852;19.700;2023-02-25T06:45:35;2.80;99.90
21849;DHT22;11089;49.852;19.700;2023-02-25T06:48:37;2.70;99.90
21849;DHT22;11089;49.852;19.700;2023-02-25T06:51:38;2.80;99.90
21849;DHT22;11089;49.852;19.700;2023-02-25T06:54:39;2.80;99.90
21849;DHT22;11089;49.852;19.700;2023-02-25T06:57:40;2.80;99.90
21849;DHT22;11089;49.852;19.700;2023-02-25T07:00:41;3.00;99.90
21849;DHT22;11089;49.852;19.700;2023-02-25T07:03:43;3.10;99.90
21849;DHT22;11089;49.852;19.700;2023-02-25T07:06:44;3.00;59.10
21849;DHT22;11089;49.852;19.700;2023-02-25T07:09:45;3.00;99.90
21849;DHT22;11089;49.852;19.700;2023-02-25T07:12:46;3.00;70.70
21849;DHT22;11089;49.852;19.700;2023-02-25T07:15:47;3.10;1.00
21849;DHT22;11089;49.852;19.700;2023-02-25T07:18:48;3.30;1.00
21849;DHT22;11089;49.852;19.700;2023-02-25T07:21:50;3.50;1.00
21849;DHT22;11089;49.852;19.700;2023-02-25T07:24:51;3.60;1.00
21849;DHT22;11089;49.852;19.700;2023-02-25T07:27:52;3.70;1.00
21849;DHT22;11089;49.852;19.700;2023-02-25T07:30:54;3.90;99.90
21849;DHT22;11089;49.852;19.700;2023-02-25T07:33:55;4.00;1.00
21849;DHT22;11089;49.852;19.700;2023-02-25T07:36:57;4.20;1.00
21849;DHT22;11089;49.852;19.700;2023-02-25T07:39:58;4.50;99.90
21849;DHT22;11089;49.852;19.700;2023-02-25T07:42:59;4.60;99.90
21849;DHT22;11089;49.852;19.700;2023-02-25T07:46:00;4.80;1.00
21849;DHT22;11089;49.852;19.700;2023-02-25T07:49:01;4.70;28.60
21849;DHT22;11089;49.852;19.700;2023-02-25T07:52:02;4.70;1.00
21849;DHT22;11089;49.852;19.700;2023-02-25T07:55:04;4.70;1.00
21849;DHT22;11089;49.852;19.700;2023-02-25T07:58:06;4.70;1.00
21849;DHT22;11089;49.852;19.700;2023-02-25T08:01:11;4.80;4.10
21849;DHT22;11089;49.852;19.700;2023-02-25T08:04:12;4.70;1.00
21849;DHT22;11089;49.852;19.700;2023-02-25T08:07:13;4.90;1.00
21849;DHT22;11089;49.852;19.700;2023-02-25T08:10:14;5.30;1.00
21849;DHT22;11089;49.852;19.700;2023-02-25T08:13:15;5.30;1.00
21849;DHT22;11089;49.852;19.700;2023-02-25T08:16:18;6.40;1.00
21849;DHT22;11089;49.852;19.700;2023-02-25T08:19:19;8.50;1.00
21849;DHT22;11089;49.852;19.700;2023-02-25T08:22:20;7.70;1.00
21849;DHT22;11089;49.852;19.700;2023-02-25T08:25:21;6.80;99.90
21849;DHT22;11089;49.852;19.700;2023-02-25T08:28:23;6.30;1.00
21849;DHT22;11089;49.852;19.700;2023-02-25T08:31:24;6.00;99.90
21849;DHT22;11089;49.852;19.700;2023-02-25T08:34:25;5.80;99.90
21849;DHT22;11089;49.852;19.700;2023-02-25T08:37:26;5.80;1.00
21849;DHT22;11089;49.852;19.700;2023-02-25T08:40:27;5.70;1.00
21849;DHT22;11089;49.852;19.700;2023-02-25T08:43:28;5.70;1.00
21849;DHT22;11089;49.852;19.700;2023-02-25T08:46:31;6.00;85.60
21849;DHT22;11089;49.852;19.700;2023-02-25T08:49:32;6.50;1.00
21849;DHT22;11089;49.852;19.700;2023-02-25T08:52:33;6.40;1.00
21849;DHT22;11089;49.852;19.700;2023-02-25T08:55:34;6.30;1.00
21849;DHT22;11089;49.852;19.700;2023-02-25T08:58:36;6.00;1.00
21849;DHT22;11089;49.852;19.700;2023-02-25T09:01:37;7.10;99.90
21849;DHT22;11089;49.852;19.700;2023-02-25T09:04:44;7.60;1.00
21849;DHT22;11089;49.852;19.700;2023-02-25T09:07:44;8.20;1.00
21849;DHT22;11089;49.852;19.700;2023-02-25T09:10:46;7.30;1.00
21849;DHT22;11089;49.852;19.700;2023-02-25T09:13:47;6.90;1.00
21849;DHT22;11089;49.852;19.700;2023-02-25T09:16:48;6.70;1.00
21849;DHT22;11089;49.852;19.700;2023-02-25T09:19:49;9.60;1.00
21849;DHT22;11089;49.852;19.700;2023-02-25T09:22:50;13.00;1.00
21849;DHT22;11089;49.852;19.700;2023-02-25T09:25:51;10.50;1.00
21849;DHT22;11089;49.852;19.700;2023-02-25T09:28:52;8.90;1.00
21849;DHT22;11089;49.852;19.700;2023-02-25T09:31:53;8.10;1.00
21849;DHT22;11089;49.852;19.700;2023-02-25T09:34:54;8.70;1.00
21849;DHT22;11089;49.852;19.700;2023-02-25T09:37:57;9.40;1.00
21849;DHT22;11089;49.852;19.700;2023-02-25T09:40:58;9.70;1.00
21849;DHT22;11089;49.852;19.700;2023-02-25T09:44:17;9.40;1.00
21849;DHT22;11089;49.852;19.700;2023-02-25T09:47:37;9.50;1.00
21849;DHT22;11089;49.852;19.700;2023-02-25T09:50:43;9.20;1.00
21849;DHT22;11089;49.852;19.700;2023-02-25T09:53:53;9.30;1.00
21849;DHT22;11089;49.852;19.700;2023-02-25T09:56:57;9.00;1.00
21849;DHT22;11089;49.852;19.700;2023-02-25T10:00:01;9.30;1.00
21849;DHT22;11089;49.852;19.700;2023-02-25T10:03:23;10.70;1.00
21849;DHT22;11089;49.852;19.700;2023-02-25T10:06:33;10.70;1.00
21849;DHT22;11089;49.852;19.700;2023-02-25T10:09:55;12.50;1.00
21849;DHT22;11089;49.852;19.700;2023-02-25T10:13:15;12.90;1.00
21849;DHT22;11089;49.852;19.700;2023-02-25T10:26:35;12.10;1.00
21849;DHT22;11089;49.852;19.700;2023-02-25T10:29:44;10.60;1.00
21849;DHT22;11089;49.852;19.700;2023-02-25T10:32:49;9.30;1.00
21849;DHT22;11089;49.852;19.700;2023-02-25T10:39:11;8.10;1.00
21849;DHT22;11089;49.852;19.700;2023-02-25T10:42:12;8.50;1.00
21849;DHT22;11089;49.852;19.700;2023-02-25T10:45:19;9.80;1.00
21849;DHT22;11089;49.852;19.700;2023-02-25T10:48:23;11.80;1.00
21849;DHT22;11089;49.852;19.700;2023-02-25T10:51:24;12.90;1.00
21849;DHT22;11089;49.852;19.700;2023-02-25T10:54:30;11.70;1.00
21849;DHT22;11089;49.852;19.700;2023-02-25T10:57:40;12.60;1.00
21849;DHT22;11089;49.852;19.700;2023-02-25T11:00:42;12.10;1.00
21849;DHT22;11089;49.852;19.700;2023-02-25T11:03:53;11.00;1.00
21849;DHT22;11089;49.852;19.700;2023-02-25T11:06:55;14.80;1.00
21849;DHT22;11089;49.852;19.700;2023-02-25T11:10:10;15.50;1.00
21849;DHT22;11089;49.852;19.700;2023-02-25T11:13:27;16.00;1.00
21849;DHT22;11089;49.852;19.700;2023-02-25T11:16:31;12.50;99.90
21849;DHT22;11089;49.852;19.700;2023-02-25T11:19:44;10.30;99.90
21849;DHT22;11089;49.852;19.700;2023-02-25T11:22:55;9.10;99.90
21849;DHT22;11089;49.852;19.700;2023-02-25T11:25:57;8.50;99.90
21849;DHT22;11089;49.852;19.700;2023-02-25T11:29:01;7.90;1.00
21849;DHT22;11089;49.852;19.700;2023-02-25T11:32:14;7.70;1.00
21849;DHT22;11089;49.852;19.700;2023-02-25T11:35:18;7.70;1.00
21849;DHT22;11089;49.852;19.700;2023-02-25T11:38:31;7.60;1.00
21849;DHT22;11089;49.852;19.700;2023-02-25T11:41:32;7.30;1.00
21849;DHT22;11089;49.852;19.700;2023-02-25T11:44:42;7.10;1.00
21849;DHT22;11089;49.852;19.700;2023-02-25T11:47:44;7.00;1.00
21849;DHT22;11089;49.852;19.700;2023-02-25T11:57:13;6.80;1.00
21849;DHT22;11089;49.852;19.700;2023-02-25T12:27:34;6.10;1.00
21849;DHT22;11089;49.852;19.700;2023-02-25T12:36:59;6.00;1.00
21849;DHT22;11089;49.852;19.700;2023-02-25T12:47:13;5.90;1.00
21849;DHT22;11089;49.852;19.700;2023-02-25T13:27:11;5.20;99.90
21849;DHT22;11089;49.852;19.700;2023-02-25T13:50:19;4.30;99.90
21849;DHT22;11089;49.852;19.700;2023-02-25T14:04:03;3.80;99.90
21849;DHT22;11089;49.852;19.700;2023-02-25T14:23:37;3.30;99.90
21849;DHT22;11089;49.852;19.700;2023-02-25T14:36:51;3.30;1.00
21849;DHT22;11089;49.852;19.700;2023-02-25T14:40:02;3.20;1.00
21849;DHT22;11089;49.852;19.700;2023-02-25T14:43:29;3.20;1.00
21849;DHT22;11089;49.852;19.700;2023-02-25T14:46:54;3.10;1.00
21849;DHT22;11089;49.852;19.700;2023-02-25T14:49:58;3.00;1.00
21849;DHT22;11089;49.852;19.700;2023-02-25T14:56:49;2.90;1.00
21849;DHT22;11089;49.852;19.700;2023-02-25T15:20:25;2.90;1.00
21849;DHT22;11089;49.852;19.700;2023-02-25T15:23:49;2.90;1.00
21849;DHT22;11089;49.852;19.700;2023-02-25T15:26:51;2.90;99.90
21849;DHT22;11089;49.852;19.700;2023-02-25T15:29:57;2.90;99.90
21849;DHT22;11089;49.852;19.700;2023-02-25T15:36:18;2.90;1.00
21849;DHT22;11089;49.852;19.700;2023-02-25T15:45:51;2.90;99.90
21849;DHT22;11089;49.852;19.700;2023-02-25T15:49:02;2.80;1.00
21849;DHT22;11089;49.852;19.700;2023-02-25T15:52:05;2.70;99.90
21849;DHT22;11089;49.852;19.700;2023-02-25T16:01:39;2.80;99.90
21849;DHT22;11089;49.852;19.700;2023-02-25T16:04:47;2.80;99.90
21849;DHT22;11089;49.852;19.700;2023-02-25T16:08:16;2.80;1.00
21849;DHT22;11089;49.852;19.700;2023-02-25T16:11:34;2.60;8.10
21849;DHT22;11089;49.852;19.700;2023-02-25T16:14:38;2.60;1.00
21849;DHT22;11089;49.852;19.700;2023-02-25T16:17:41;2.70;1.00
21849;DHT22;11089;49.852;19.700;2023-02-25T16:20:46;2.60;99.90
21849;DHT22;11089;49.852;19.700;2023-02-25T16:23:48;2.50;99.90
21849;DHT22;11089;49.852;19.700;2023-02-25T16:27:02;2.60;1.00
21849;DHT22;11089;49.852;19.700;2023-02-25T16:39:46;2.50;1.00
21849;DHT22;11089;49.852;19.700;2023-02-25T16:42:47;2.60;99.90
21849;DHT22;11089;49.852;19.700;2023-02-25T16:46:03;2.60;99.90
21849;DHT22;11089;49.852;19.700;2023-02-25T16:49:27;2.60;99.90
21849;DHT22;11089;49.852;19.700;2023-02-25T16:52:35;2.70;99.90
21849;DHT22;11089;49.852;19.700;2023-02-25T16:55:38;2.70;1.00
21849;DHT22;11089;49.852;19.700;2023-02-25T16:58:40;2.60;1.00
21849;DHT22;11089;49.852;19.700;2023-02-25T17:02:02;2.60;1.00
21849;DHT22;11089;49.852;19.700;2023-02-25T17:05:27;2.70;1.00
21849;DHT22;11089;49.852;19.700;2023-02-25T17:08:28;2.70;99.90
21849;DHT22;11089;49.852;19.700;2023-02-25T17:11:29;2.60;1.00
21849;DHT22;11089;49.852;19.700;2023-02-25T17:14:30;2.60;71.60
21849;DHT22;11089;49.852;19.700;2023-02-25T17:17:34;2.60;1.00
21849;DHT22;11089;49.852;19.700;2023-02-25T17:20:36;2.70;99.90
21849;DHT22;11089;49.852;19.700;2023-02-25T17:23:39;2.60;1.00
21849;DHT22;11089;49.852;19.700;2023-02-25T17:26:44;2.60;1.00
21849;DHT22;11089;49.852;19.700;2023-02-25T17:29:47;2.60;99.90
21849;DHT22;11089;49.852;19.700;2023-02-25T17:32:54;2.70;99.90
21849;DHT22;11089;49.852;19.700;2023-02-25T17:36:10;2.70;99.90
21849;DHT22;11089;49.852;19.700;2023-02-25T17:39:18;2.60;1.00
21849;DHT22;11089;49.852;19.700;2023-02-25T17:42:45;2.60;1.00
21849;DHT22;11089;49.852;19.700;2023-02-25T17:45:58;2.50;99.90
21849;DHT22;11089;49.852;19.700;2023-02-25T17:49:18;2.60;1.00
21849;DHT22;11089;49.852;19.700;2023-02-25T17:52:29;2.70;30.80
21849;DHT22;11089;49.852;19.700;2023-02-25T17:55:33;2.60;1.00
21849;DHT22;11089;49.852;19.700;2023-02-25T17:58:34;2.50;1.00
21849;DHT22;11089;49.852;19.700;2023-02-25T18:01:59;2.40;1.00
21849;DHT22;11089;49.852;19.700;2023-02-25T18:08:19;2.50;99.90
21849;DHT22;11089;49.852;19.700;2023-02-25T18:14:37;2.40;99.90
21849;DHT22;11089;49.852;19.700;2023-02-25T18:17:40;2.40;99.90
21849;DHT22;11089;49.852;19.700;2023-02-25T18:20:43;2.40;1.00
21849;DHT22;11089;49.852;19.700;2023-02-25T18:23:47;2.30;1.00
21849;DHT22;11089;49.852;19.700;2023-02-25T18:30:41;2.40;99.90
21849;DHT22;11089;49.852;19.700;2023-02-25T18:33:42;2.40;1.00
21849;DHT22;11089;49.852;19.700;2023-02-25T18:36:43;2.40;1.00
21849;DHT22;11089;49.852;19.700;2023-02-25T18:39:46;2.50;1.00
21849;DHT22;11089;49.852;19.700;2023-02-25T18:43:13;2.50;99.90
21849;DHT22;11089;49.852;19.700;2023-02-25T18:47:25;2.50;99.90
21849;DHT22;11089;49.852;19.700;2023-02-25T18:50:42;2.50;1.00
21849;DHT22;11089;49.852;19.700;2023-02-25T18:53:44;2.50;1.00
21849;DHT22;11089;49.852;19.700;2023-02-25T18:56:46;2.50;99.90
21849;DHT22;11089;49.852;19.700;2023-02-25T18:59:47;2.60;1.00
21849;DHT22;11089;49.852;19.700;2023-02-25T19:02:49;2.50;1.00
21849;DHT22;11089;49.852;19.700;2023-02-25T19:05:50;2.50;1.00
21849;DHT22;11089;49.852;19.700;2023-02-25T19:08:51;2.40;1.00
21849;DHT22;11089;49.852;19.700;2023-02-25T19:11:52;2.30;1.00
21849;DHT22;11089;49.852;19.700;2023-02-25T19:15:06;2.40;99.90
21849;DHT22;11089;49.852;19.700;2023-02-25T19:18:14;2.50;99.90
21849;DHT22;11089;49.852;19.700;2023-02-25T19:21:18;2.50;92.90
21849;DHT22;11089;49.852;19.700;2023-02-25T19:24:20;2.40;1.00
21849;DHT22;11089;49.852;19.700;2023-02-25T19:27:26;2.40;99.90
21849;DHT22;11089;49.852;19.700;2023-02-25T19:30:33;2.30;99.90
21849;DHT22;11089;49.852;19.700;2023-02-25T19:33:34;2.30;1.00
21849;DHT22;11089;49.852;19.700;2023-02-25T19:36:35;2.20;1.00
21849;DHT22;11089;49.852;19.700;2023-02-25T19:39:36;2.10;1.00
21849;DHT22;11089;49.852;19.700;2023-02-25T19:42:39;2.10;99.90
21849;DHT22;11089;49.852;19.700;2023-02-25T19:45:41;2.10;1.00
21849;DHT22;11089;49.852;19.700;2023-02-25T19:48:43;2.10;1.00
21849;DHT22;11089;49.852;19.700;2023-02-25T19:51:43;2.00;1.00
21849;DHT22;11089;49.852;19.700;2023-02-25T19:54:44;2.00;1.00
21849;DHT22;11089;49.852;19.700;2023-02-25T19:57:45;1.90;1.00
21849;DHT22;11089;49.852;19.700;2023-02-25T20:00:46;1.90;60.40
21849;DHT22;11089;49.852;19.700;2023-02-25T20:03:47;1.90;1.00
21849;DHT22;11089;49.852;19.700;2023-02-25T20:06:48;2.00;1.00
21849;DHT22;11089;49.852;19.700;2023-02-25T20:09:49;2.00;1.00
21849;DHT22;11089;49.852;19.700;2023-02-25T20:12:50;2.00;1.00
21849;DHT22;11089;49.852;19.700;2023-02-25T20:15:51;2.00;99.90
21849;DHT22;11089;49.852;19.700;2023-02-25T20:18:52;2.00;99.90
21849;DHT22;11089;49.852;19.700;2023-02-25T20:21:53;2.00;1.00
21849;DHT22;11089;49.852;19.700;2023-02-25T20:24:54;2.00;99.90
21849;DHT22;11089;49.852;19.700;2023-02-25T20:27:55;1.90;1.00
21849;DHT22;11089;49.852;19.700;2023-02-25T20:31:07;1.90;1.00
21849;DHT22;11089;49.852;19.700;2023-02-25T20:34:15;1.90;1.00
21849;DHT22;11089;49.852;19.700;2023-02-25T20:37:22;1.70;89.90
21849;DHT22;11089;49.852;19.700;2023-02-25T20:40:24;1.70;99.90
21849;DHT22;11089;49.852;19.700;2023-02-25T20:43:25;1.70;1.00
21849;DHT22;11089;49.852;19.700;2023-02-25T20:46:27;1.70;99.90
21849;DHT22;11089;49.852;19.700;2023-02-25T20:49:28;1.70;1.00
21849;DHT22;11089;49.852;19.700;2023-02-25T20:52:29;1.70;1.00
21849;DHT22;11089;49.852;19.700;2023-02-25T20:55:30;1.60;1.00
21849;DHT22;11089;49.852;19.700;2023-02-25T20:58:31;1.70;1.00
21849;DHT22;11089;49.852;19.700;2023-02-25T21:01:32;1.70;1.00
21849;DHT22;11089;49.852;19.700;2023-02-25T21:04:33;1.70;1.00
21849;DHT22;11089;49.852;19.700;2023-02-25T21:07:34;1.70;1.00
21849;DHT22;11089;49.852;19.700;2023-02-25T21:10:35;1.70;1.00
21849;DHT22;11089;49.852;19.700;2023-02-25T21:13:36;1.70;1.00
21849;DHT22;11089;49.852;19.700;2023-02-25T21:16:39;1.70;1.00
21849;DHT22;11089;49.852;19.700;2023-02-25T21:19:40;1.70;1.00
21849;DHT22;11089;49.852;19.700;2023-02-25T21:22:41;1.60;1.00
21849;DHT22;11089;49.852;19.700;2023-02-25T21:25:41;1.70;1.00
21849;DHT22;11089;49.852;19.700;2023-02-25T21:28:42;1.70;1.00
21849;DHT22;11089;49.852;19.700;2023-02-25T21:31:45;1.60;1.00
21849;DHT22;11089;49.852;19.700;2023-02-25T21:34:46;1.70;1.00
21849;DHT22;11089;49.852;19.700;2023-02-25T21:37:47;1.60;1.00
21849;DHT22;11089;49.852;19.700;2023-02-25T21:40:48;1.50;1.00
21849;DHT22;11089;49.852;19.700;2023-02-25T21:43:51;1.60;1.00
21849;DHT22;11089;49.852;19.700;2023-02-25T21:46:52;1.60;1.00
21849;DHT22;11089;49.852;19.700;2023-02-25T21:49:54;1.60;1.00
21849;DHT22;11089;49.852;19.700;2023-02-25T21:52:55;1.60;1.00
21849;DHT22;11089;49.852;19.700;2023-02-25T21:56:09;1.60;1.00
21849;DHT22;11089;49.852;19.700;2023-02-25T21:59:11;1.70;1.00
21849;DHT22;11089;49.852;19.700;2023-02-25T22:02:12;1.80;1.00
21849;DHT22;11089;49.852;19.700;2023-02-25T22:05:13;1.80;1.00
21849;DHT22;11089;49.852;19.700;2023-02-25T22:08:15;1.90;1.00
21849;DHT22;11089;49.852;19.700;2023-02-25T22:11:20;1.80;1.00
21849;DHT22;11089;49.852;19.700;2023-02-25T22:14:21;1.80;1.00
21849;DHT22;11089;49.852;19.700;2023-02-25T22:17:24;1.80;1.00
21849;DHT22;11089;49.852;19.700;2023-02-25T22:20:24;1.70;1.00
21849;DHT22;11089;49.852;19.700;2023-02-25T22:23:25;1.70;1.00
21849;DHT22;11089;49.852;19.700;2023-02-25T22:26:29;1.60;1.00
21849;DHT22;11089;49.852;19.700;2023-02-25T22:29:31;1.50;1.00
21849;DHT22;11089;49.852;19.700;2023-02-25T22:32:35;1.50;1.00
21849;DHT22;11089;49.852;19.700;2023-02-25T22:35:36;1.50;63.90
21849;DHT22;11089;49.852;19.700;2023-02-25T22:38:40;1.50;99.90
21849;DHT22;11089;49.852;19.700;2023-02-25T22:41:40;1.50;99.90
21849;DHT22;11089;49.852;19.700;2023-02-25T22:44:41;1.50;99.90
21849;DHT22;11089;49.852;19.700;2023-02-25T22:47:42;1.50;99.90
21849;DHT22;11089;49.852;19.700;2023-02-25T22:50:49;1.50;99.90
21849;DHT22;11089;49.852;19.700;2023-02-25T22:53:51;1.50;99.90
21849;DHT22;11089;49.852;19.700;2023-02-25T22:56:52;1.60;99.90
21849;DHT22;11089;49.852;19.700;2023-02-25T22:59:53;1.50;99.90
21849;DHT22;11089;49.852;19.700;2023-02-25T23:02:53;1.50;99.90
21849;DHT22;11089;49.852;19.700;2023-02-25T23:05:54;1.50;99.90
21849;DHT22;11089;49.852;19.700;2023-02-25T23:08:56;1.50;99.90
21849;DHT22;11089;49.852;19.700;2023-02-25T23:11:57;1.40;99.90
21849;DHT22;11089;49.852;19.700;2023-02-25T23:14:59;1.40;99.90
21849;DHT22;11089;49.852;19.700;2023-02-25T23:18:00;1.50;99.90
21849;DHT22;11089;49.852;19.700;2023-02-25T23:21:03;1.50;99.90
21849;DHT22;11089;49.852;19.700;2023-02-25T23:24:06;1.50;99.90
21849;DHT22;11089;49.852;19.700;2023-02-25T23:27:08;1.50;99.90
21849;DHT22;11089;49.852;19.700;2023-02-25T23:30:10;1.60;99.90
21849;DHT22;11089;49.852;19.700;2023-02-25T23:33:11;1.60;99.90
21849;DHT22;11089;49.852;19.700;2023-02-25T23:36:12;1.60;99.90